<?xml version="1.0" encoding="UTF-8" standalone="no" ?>
<gpx xmlns="http://www.topografix.com/GPX/1/1" xmlns:xsi="http://www.w3.org/2001/XMLSchema-instance" xsi:schemaLocation="http://www.topografix.com/GPX/1/1 http://www.topografix.com/GPX/1/1/gpx.xsd" version="1.1" creator="VisuGPX - https://www.visugpx.com">
  <metadata>
    <name>Randonnée du 22/05/2020 à 11:18</name>
    <desc><![CDATA[Balade entre le Mont Thou et le Mont Cindre]]></desc>
  </metadata>
  <trk>
    <name><![CDATA[Randonnée du 22/05/2020 à 11:18]]></name>
    <trkseg>
      <trkpt lat="45.8387" lon="4.82118">
        <ele>221</ele>
        <time>2020-05-22T11:18:28+02:00</time>
      </trkpt>
      <trkpt lat="45.83871" lon="4.82085">
        <ele>223</ele>
        <time>2020-05-22T11:19:07+02:00</time>
      </trkpt>
      <trkpt lat="45.83875" lon="4.82053">
        <ele>225</ele>
        <time>2020-05-22T11:19:28+02:00</time>
      </trkpt>
      <trkpt lat="45.83878" lon="4.82019">
        <ele>228</ele>
        <time>2020-05-22T11:19:50+02:00</time>
      </trkpt>
      <trkpt lat="45.83874" lon="4.81986">
        <ele>230</ele>
        <time>2020-05-22T11:20:12+02:00</time>
      </trkpt>
      <trkpt lat="45.83868" lon="4.81955">
        <ele>233</ele>
        <time>2020-05-22T11:20:37+02:00</time>
      </trkpt>
      <trkpt lat="45.83866" lon="4.81922">
        <ele>235</ele>
        <time>2020-05-22T11:21:04+02:00</time>
      </trkpt>
      <trkpt lat="45.83867" lon="4.81888">
        <ele>238</ele>
        <time>2020-05-22T11:21:26+02:00</time>
      </trkpt>
      <trkpt lat="45.83862" lon="4.81857">
        <ele>240</ele>
        <time>2020-05-22T11:21:44+02:00</time>
      </trkpt>
      <trkpt lat="45.8385" lon="4.81829">
        <ele>241</ele>
        <time>2020-05-22T11:22:16+02:00</time>
      </trkpt>
      <trkpt lat="45.83841" lon="4.81798">
        <ele>244</ele>
        <time>2020-05-22T11:22:38+02:00</time>
      </trkpt>
      <trkpt lat="45.83832" lon="4.81768">
        <ele>247</ele>
        <time>2020-05-22T11:23:11+02:00</time>
      </trkpt>
      <trkpt lat="45.83829" lon="4.81735">
        <ele>253</ele>
        <time>2020-05-22T11:23:32+02:00</time>
      </trkpt>
      <trkpt lat="45.83822" lon="4.81703">
        <ele>260</ele>
        <time>2020-05-22T11:24:08+02:00</time>
      </trkpt>
      <trkpt lat="45.83814" lon="4.81671">
        <ele>267</ele>
        <time>2020-05-22T11:24:28+02:00</time>
      </trkpt>
      <trkpt lat="45.83809" lon="4.81639">
        <ele>275</ele>
        <time>2020-05-22T11:25:00+02:00</time>
      </trkpt>
      <trkpt lat="45.83803" lon="4.81608">
        <ele>282</ele>
        <time>2020-05-22T11:25:32+02:00</time>
      </trkpt>
      <trkpt lat="45.83784" lon="4.8159">
        <ele>289</ele>
        <time>2020-05-22T11:26:15+02:00</time>
      </trkpt>
      <trkpt lat="45.83791" lon="4.81558">
        <ele>292</ele>
        <time>2020-05-22T11:26:35+02:00</time>
      </trkpt>
      <trkpt lat="45.83785" lon="4.81526">
        <ele>297</ele>
        <time>2020-05-22T11:27:37+02:00</time>
      </trkpt>
      <trkpt lat="45.83781" lon="4.81492">
        <ele>302</ele>
        <time>2020-05-22T11:27:56+02:00</time>
      </trkpt>
      <trkpt lat="45.8379" lon="4.81463">
        <ele>307</ele>
        <time>2020-05-22T11:28:11+02:00</time>
      </trkpt>
      <trkpt lat="45.83783" lon="4.81431">
        <ele>314</ele>
        <time>2020-05-22T11:29:11+02:00</time>
      </trkpt>
      <trkpt lat="45.83782" lon="4.81398">
        <ele>320</ele>
        <time>2020-05-22T11:29:30+02:00</time>
      </trkpt>
      <trkpt lat="45.83783" lon="4.81365">
        <ele>326</ele>
        <time>2020-05-22T11:29:52+02:00</time>
      </trkpt>
      <trkpt lat="45.83772" lon="4.81335">
        <ele>331</ele>
        <time>2020-05-22T11:30:21+02:00</time>
      </trkpt>
      <trkpt lat="45.83776" lon="4.81304">
        <ele>336</ele>
        <time>2020-05-22T11:30:53+02:00</time>
      </trkpt>
      <trkpt lat="45.83772" lon="4.81271">
        <ele>341</ele>
        <time>2020-05-22T11:31:21+02:00</time>
      </trkpt>
      <trkpt lat="45.83776" lon="4.81238">
        <ele>347</ele>
        <time>2020-05-22T11:32:22+02:00</time>
      </trkpt>
      <trkpt lat="45.83782" lon="4.81207">
        <ele>353</ele>
        <time>2020-05-22T11:32:46+02:00</time>
      </trkpt>
      <trkpt lat="45.83779" lon="4.81175">
        <ele>358</ele>
        <time>2020-05-22T11:35:05+02:00</time>
      </trkpt>
      <trkpt lat="45.83756" lon="4.81183">
        <ele>355</ele>
        <time>2020-05-22T11:36:27+02:00</time>
      </trkpt>
      <trkpt lat="45.83736" lon="4.81197">
        <ele>353</ele>
        <time>2020-05-22T11:37:01+02:00</time>
      </trkpt>
      <trkpt lat="45.83712" lon="4.81208">
        <ele>354</ele>
        <time>2020-05-22T11:37:30+02:00</time>
      </trkpt>
      <trkpt lat="45.8369" lon="4.81217">
        <ele>355</ele>
        <time>2020-05-22T11:38:01+02:00</time>
      </trkpt>
      <trkpt lat="45.83667" lon="4.81228">
        <ele>357</ele>
        <time>2020-05-22T11:38:32+02:00</time>
      </trkpt>
      <trkpt lat="45.83646" lon="4.81242">
        <ele>357</ele>
        <time>2020-05-22T11:38:53+02:00</time>
      </trkpt>
      <trkpt lat="45.83626" lon="4.81261">
        <ele>357</ele>
        <time>2020-05-22T11:39:13+02:00</time>
      </trkpt>
      <trkpt lat="45.83605" lon="4.81272">
        <ele>357</ele>
        <time>2020-05-22T11:39:34+02:00</time>
      </trkpt>
      <trkpt lat="45.83583" lon="4.81285">
        <ele>358</ele>
        <time>2020-05-22T11:39:58+02:00</time>
      </trkpt>
      <trkpt lat="45.83562" lon="4.81301">
        <ele>357</ele>
        <time>2020-05-22T11:40:19+02:00</time>
      </trkpt>
      <trkpt lat="45.83541" lon="4.81318">
        <ele>356</ele>
        <time>2020-05-22T11:40:36+02:00</time>
      </trkpt>
      <trkpt lat="45.83521" lon="4.81331">
        <ele>354</ele>
        <time>2020-05-22T11:41:02+02:00</time>
      </trkpt>
      <trkpt lat="45.83498" lon="4.81343">
        <ele>352</ele>
        <time>2020-05-22T11:41:26+02:00</time>
      </trkpt>
      <trkpt lat="45.83477" lon="4.81357">
        <ele>349</ele>
        <time>2020-05-22T11:42:00+02:00</time>
      </trkpt>
      <trkpt lat="45.83456" lon="4.81371">
        <ele>346</ele>
        <time>2020-05-22T11:42:26+02:00</time>
      </trkpt>
      <trkpt lat="45.83433" lon="4.81382">
        <ele>343</ele>
        <time>2020-05-22T11:42:53+02:00</time>
      </trkpt>
      <trkpt lat="45.83413" lon="4.81395">
        <ele>341</ele>
        <time>2020-05-22T11:43:38+02:00</time>
      </trkpt>
      <trkpt lat="45.83393" lon="4.81412">
        <ele>338</ele>
        <time>2020-05-22T11:44:07+02:00</time>
      </trkpt>
      <trkpt lat="45.83373" lon="4.81426">
        <ele>336</ele>
        <time>2020-05-22T11:44:23+02:00</time>
      </trkpt>
      <trkpt lat="45.83352" lon="4.81439">
        <ele>333</ele>
        <time>2020-05-22T11:46:00+02:00</time>
      </trkpt>
      <trkpt lat="45.83333" lon="4.81459">
        <ele>330</ele>
        <time>2020-05-22T11:46:19+02:00</time>
      </trkpt>
      <trkpt lat="45.83316" lon="4.81436">
        <ele>330</ele>
        <time>2020-05-22T11:46:57+02:00</time>
      </trkpt>
      <trkpt lat="45.8331" lon="4.81405">
        <ele>333</ele>
        <time>2020-05-22T11:47:21+02:00</time>
      </trkpt>
      <trkpt lat="45.83297" lon="4.81378">
        <ele>337</ele>
        <time>2020-05-22T11:47:44+02:00</time>
      </trkpt>
      <trkpt lat="45.83283" lon="4.81351">
        <ele>341</ele>
        <time>2020-05-22T11:48:19+02:00</time>
      </trkpt>
      <trkpt lat="45.83266" lon="4.81329">
        <ele>345</ele>
        <time>2020-05-22T11:48:47+02:00</time>
      </trkpt>
      <trkpt lat="45.8325" lon="4.81303">
        <ele>348</ele>
        <time>2020-05-22T11:49:32+02:00</time>
      </trkpt>
      <trkpt lat="45.83243" lon="4.81272">
        <ele>352</ele>
        <time>2020-05-22T11:50:08+02:00</time>
      </trkpt>
      <trkpt lat="45.83233" lon="4.81243">
        <ele>355</ele>
        <time>2020-05-22T11:52:37+02:00</time>
      </trkpt>
      <trkpt lat="45.83236" lon="4.8121">
        <ele>359</ele>
        <time>2020-05-22T11:53:00+02:00</time>
      </trkpt>
      <trkpt lat="45.83236" lon="4.81178">
        <ele>364</ele>
        <time>2020-05-22T11:53:23+02:00</time>
      </trkpt>
      <trkpt lat="45.83232" lon="4.81146">
        <ele>368</ele>
        <time>2020-05-22T11:53:48+02:00</time>
      </trkpt>
      <trkpt lat="45.8324" lon="4.81116">
        <ele>372</ele>
        <time>2020-05-22T11:57:00+02:00</time>
      </trkpt>
      <trkpt lat="45.83227" lon="4.8109">
        <ele>376</ele>
        <time>2020-05-22T11:57:30+02:00</time>
      </trkpt>
      <trkpt lat="45.83207" lon="4.81075">
        <ele>378</ele>
        <time>2020-05-22T11:57:54+02:00</time>
      </trkpt>
      <trkpt lat="45.83184" lon="4.81066">
        <ele>379</ele>
        <time>2020-05-22T11:58:25+02:00</time>
      </trkpt>
      <trkpt lat="45.83165" lon="4.81051">
        <ele>381</ele>
        <time>2020-05-22T11:58:52+02:00</time>
      </trkpt>
      <trkpt lat="45.83145" lon="4.81031">
        <ele>387</ele>
        <time>2020-05-22T11:59:14+02:00</time>
      </trkpt>
      <trkpt lat="45.83142" lon="4.80998">
        <ele>394</ele>
        <time>2020-05-22T11:59:38+02:00</time>
      </trkpt>
      <trkpt lat="45.83125" lon="4.80977">
        <ele>401</ele>
        <time>2020-05-22T12:01:46+02:00</time>
      </trkpt>
      <trkpt lat="45.83102" lon="4.80979">
        <ele>405</ele>
        <time>2020-05-22T12:02:11+02:00</time>
      </trkpt>
      <trkpt lat="45.83085" lon="4.81001">
        <ele>404</ele>
        <time>2020-05-22T12:02:32+02:00</time>
      </trkpt>
      <trkpt lat="45.83067" lon="4.81021">
        <ele>402</ele>
        <time>2020-05-22T12:02:51+02:00</time>
      </trkpt>
      <trkpt lat="45.83047" lon="4.81036">
        <ele>403</ele>
        <time>2020-05-22T12:03:17+02:00</time>
      </trkpt>
      <trkpt lat="45.83023" lon="4.81044">
        <ele>405</ele>
        <time>2020-05-22T12:03:39+02:00</time>
      </trkpt>
      <trkpt lat="45.83001" lon="4.81056">
        <ele>408</ele>
        <time>2020-05-22T12:04:03+02:00</time>
      </trkpt>
      <trkpt lat="45.8298" lon="4.81069">
        <ele>407</ele>
        <time>2020-05-22T12:04:24+02:00</time>
      </trkpt>
      <trkpt lat="45.82959" lon="4.81084">
        <ele>406</ele>
        <time>2020-05-22T12:04:53+02:00</time>
      </trkpt>
      <trkpt lat="45.82937" lon="4.81093">
        <ele>407</ele>
        <time>2020-05-22T12:05:16+02:00</time>
      </trkpt>
      <trkpt lat="45.82915" lon="4.81104">
        <ele>408</ele>
        <time>2020-05-22T12:05:38+02:00</time>
      </trkpt>
      <trkpt lat="45.82893" lon="4.81112">
        <ele>408</ele>
        <time>2020-05-22T12:05:58+02:00</time>
      </trkpt>
      <trkpt lat="45.82871" lon="4.81115">
        <ele>408</ele>
        <time>2020-05-22T12:06:11+02:00</time>
      </trkpt>
      <trkpt lat="45.82848" lon="4.81119">
        <ele>408</ele>
        <time>2020-05-22T12:06:45+02:00</time>
      </trkpt>
      <trkpt lat="45.82836" lon="4.81147">
        <ele>409</ele>
        <time>2020-05-22T12:07:03+02:00</time>
      </trkpt>
      <trkpt lat="45.82825" lon="4.81177">
        <ele>410</ele>
        <time>2020-05-22T12:07:23+02:00</time>
      </trkpt>
      <trkpt lat="45.82818" lon="4.8121">
        <ele>411</ele>
        <time>2020-05-22T12:07:41+02:00</time>
      </trkpt>
      <trkpt lat="45.8281" lon="4.81241">
        <ele>412</ele>
        <time>2020-05-22T12:08:00+02:00</time>
      </trkpt>
      <trkpt lat="45.82802" lon="4.81272">
        <ele>412</ele>
        <time>2020-05-22T12:08:24+02:00</time>
      </trkpt>
      <trkpt lat="45.82789" lon="4.81299">
        <ele>413</ele>
        <time>2020-05-22T12:13:18+02:00</time>
      </trkpt>
      <trkpt lat="45.82783" lon="4.81333">
        <ele>415</ele>
        <time>2020-05-22T12:13:45+02:00</time>
      </trkpt>
      <trkpt lat="45.8277" lon="4.81363">
        <ele>417</ele>
        <time>2020-05-22T12:14:13+02:00</time>
      </trkpt>
      <trkpt lat="45.82769" lon="4.81395">
        <ele>418</ele>
        <time>2020-05-22T12:14:34+02:00</time>
      </trkpt>
      <trkpt lat="45.82764" lon="4.81428">
        <ele>421</ele>
        <time>2020-05-22T12:15:12+02:00</time>
      </trkpt>
      <trkpt lat="45.82757" lon="4.81462">
        <ele>425</ele>
        <time>2020-05-22T12:15:39+02:00</time>
      </trkpt>
      <trkpt lat="45.82751" lon="4.81495">
        <ele>430</ele>
        <time>2020-05-22T12:16:10+02:00</time>
      </trkpt>
      <trkpt lat="45.82735" lon="4.81519">
        <ele>433</ele>
        <time>2020-05-22T12:17:01+02:00</time>
      </trkpt>
      <trkpt lat="45.82715" lon="4.81534">
        <ele>435</ele>
        <time>2020-05-22T12:17:37+02:00</time>
      </trkpt>
      <trkpt lat="45.82707" lon="4.81567">
        <ele>438</ele>
        <time>2020-05-22T12:18:26+02:00</time>
      </trkpt>
      <trkpt lat="45.82701" lon="4.81599">
        <ele>439</ele>
        <time>2020-05-22T12:18:48+02:00</time>
      </trkpt>
      <trkpt lat="45.82697" lon="4.81633">
        <ele>440</ele>
        <time>2020-05-22T12:19:29+02:00</time>
      </trkpt>
      <trkpt lat="45.82694" lon="4.81665">
        <ele>440</ele>
        <time>2020-05-22T12:19:48+02:00</time>
      </trkpt>
      <trkpt lat="45.82689" lon="4.81699">
        <ele>442</ele>
        <time>2020-05-22T12:20:11+02:00</time>
      </trkpt>
      <trkpt lat="45.82689" lon="4.81732">
        <ele>443</ele>
        <time>2020-05-22T12:20:49+02:00</time>
      </trkpt>
      <trkpt lat="45.82686" lon="4.81764">
        <ele>445</ele>
        <time>2020-05-22T12:21:16+02:00</time>
      </trkpt>
      <trkpt lat="45.82675" lon="4.81793">
        <ele>448</ele>
        <time>2020-05-22T12:21:45+02:00</time>
      </trkpt>
      <trkpt lat="45.82671" lon="4.81825">
        <ele>450</ele>
        <time>2020-05-22T12:22:08+02:00</time>
      </trkpt>
      <trkpt lat="45.82663" lon="4.81856">
        <ele>452</ele>
        <time>2020-05-22T12:23:10+02:00</time>
      </trkpt>
      <trkpt lat="45.82655" lon="4.81887">
        <ele>453</ele>
        <time>2020-05-22T12:23:29+02:00</time>
      </trkpt>
      <trkpt lat="45.82647" lon="4.81918">
        <ele>454</ele>
        <time>2020-05-22T12:23:53+02:00</time>
      </trkpt>
      <trkpt lat="45.82636" lon="4.81947">
        <ele>455</ele>
        <time>2020-05-22T12:24:28+02:00</time>
      </trkpt>
      <trkpt lat="45.82625" lon="4.81977">
        <ele>456</ele>
        <time>2020-05-22T12:24:44+02:00</time>
      </trkpt>
      <trkpt lat="45.8262" lon="4.8201">
        <ele>457</ele>
        <time>2020-05-22T12:25:17+02:00</time>
      </trkpt>
      <trkpt lat="45.82618" lon="4.82042">
        <ele>456</ele>
        <time>2020-05-22T12:25:36+02:00</time>
      </trkpt>
      <trkpt lat="45.82622" lon="4.82075">
        <ele>454</ele>
        <time>2020-05-22T12:26:14+02:00</time>
      </trkpt>
      <trkpt lat="45.82629" lon="4.82107">
        <ele>454</ele>
        <time>2020-05-22T12:26:32+02:00</time>
      </trkpt>
      <trkpt lat="45.82641" lon="4.82135">
        <ele>454</ele>
        <time>2020-05-22T12:26:47+02:00</time>
      </trkpt>
      <trkpt lat="45.82647" lon="4.82167">
        <ele>455</ele>
        <time>2020-05-22T12:27:31+02:00</time>
      </trkpt>
      <trkpt lat="45.82659" lon="4.82195">
        <ele>454</ele>
        <time>2020-05-22T12:27:51+02:00</time>
      </trkpt>
      <trkpt lat="45.82673" lon="4.82222">
        <ele>454</ele>
        <time>2020-05-22T12:28:11+02:00</time>
      </trkpt>
      <trkpt lat="45.82685" lon="4.8225">
        <ele>453</ele>
        <time>2020-05-22T12:28:29+02:00</time>
      </trkpt>
      <trkpt lat="45.82703" lon="4.82269">
        <ele>451</ele>
        <time>2020-05-22T12:28:51+02:00</time>
      </trkpt>
      <trkpt lat="45.82716" lon="4.82297">
        <ele>449</ele>
        <time>2020-05-22T12:29:12+02:00</time>
      </trkpt>
      <trkpt lat="45.82723" lon="4.82328">
        <ele>448</ele>
        <time>2020-05-22T12:29:32+02:00</time>
      </trkpt>
      <trkpt lat="45.8273" lon="4.8236">
        <ele>446</ele>
        <time>2020-05-22T12:29:58+02:00</time>
      </trkpt>
      <trkpt lat="45.82736" lon="4.82391">
        <ele>444</ele>
        <time>2020-05-22T12:30:17+02:00</time>
      </trkpt>
      <trkpt lat="45.8275" lon="4.82418">
        <ele>442</ele>
        <time>2020-05-22T12:30:34+02:00</time>
      </trkpt>
      <trkpt lat="45.82763" lon="4.82446">
        <ele>438</ele>
        <time>2020-05-22T12:30:53+02:00</time>
      </trkpt>
      <trkpt lat="45.82771" lon="4.82476">
        <ele>435</ele>
        <time>2020-05-22T12:31:10+02:00</time>
      </trkpt>
      <trkpt lat="45.8278" lon="4.82507">
        <ele>432</ele>
        <time>2020-05-22T12:31:28+02:00</time>
      </trkpt>
      <trkpt lat="45.82782" lon="4.8254">
        <ele>427</ele>
        <time>2020-05-22T12:32:17+02:00</time>
      </trkpt>
      <trkpt lat="45.82776" lon="4.82571">
        <ele>422</ele>
        <time>2020-05-22T12:32:36+02:00</time>
      </trkpt>
      <trkpt lat="45.82786" lon="4.826">
        <ele>419</ele>
        <time>2020-05-22T12:32:58+02:00</time>
      </trkpt>
      <trkpt lat="45.82791" lon="4.82632">
        <ele>415</ele>
        <time>2020-05-22T12:33:28+02:00</time>
      </trkpt>
      <trkpt lat="45.82798" lon="4.82664">
        <ele>411</ele>
        <time>2020-05-22T12:33:48+02:00</time>
      </trkpt>
      <trkpt lat="45.82796" lon="4.82696">
        <ele>405</ele>
        <time>2020-05-22T12:34:37+02:00</time>
      </trkpt>
      <trkpt lat="45.82779" lon="4.82719">
        <ele>399</ele>
        <time>2020-05-22T12:35:15+02:00</time>
      </trkpt>
      <trkpt lat="45.82756" lon="4.82722">
        <ele>396</ele>
        <time>2020-05-22T12:35:32+02:00</time>
      </trkpt>
      <trkpt lat="45.82734" lon="4.82731">
        <ele>388</ele>
        <time>2020-05-22T12:35:47+02:00</time>
      </trkpt>
      <trkpt lat="45.82712" lon="4.8272">
        <ele>384</ele>
        <time>2020-05-22T12:36:09+02:00</time>
      </trkpt>
      <trkpt lat="45.82693" lon="4.82704">
        <ele>382</ele>
        <time>2020-05-22T12:36:31+02:00</time>
      </trkpt>
      <trkpt lat="45.82671" lon="4.82692">
        <ele>378</ele>
        <time>2020-05-22T12:37:11+02:00</time>
      </trkpt>
      <trkpt lat="45.82652" lon="4.82673">
        <ele>379</ele>
        <time>2020-05-22T12:37:35+02:00</time>
      </trkpt>
      <trkpt lat="45.82632" lon="4.82656">
        <ele>379</ele>
        <time>2020-05-22T12:37:56+02:00</time>
      </trkpt>
      <trkpt lat="45.82611" lon="4.82643">
        <ele>379</ele>
        <time>2020-05-22T12:38:14+02:00</time>
      </trkpt>
      <trkpt lat="45.82587" lon="4.82638">
        <ele>376</ele>
        <time>2020-05-22T12:38:36+02:00</time>
      </trkpt>
      <trkpt lat="45.82564" lon="4.82641">
        <ele>372</ele>
        <time>2020-05-22T12:38:49+02:00</time>
      </trkpt>
      <trkpt lat="45.82545" lon="4.8266">
        <ele>365</ele>
        <time>2020-05-22T12:39:04+02:00</time>
      </trkpt>
      <trkpt lat="45.82532" lon="4.82687">
        <ele>358</ele>
        <time>2020-05-22T12:39:29+02:00</time>
      </trkpt>
      <trkpt lat="45.82553" lon="4.82701">
        <ele>357</ele>
        <time>2020-05-22T12:39:43+02:00</time>
      </trkpt>
      <trkpt lat="45.82573" lon="4.82717">
        <ele>354</ele>
        <time>2020-05-22T12:40:05+02:00</time>
      </trkpt>
      <trkpt lat="45.82595" lon="4.82718">
        <ele>357</ele>
        <time>2020-05-22T12:40:30+02:00</time>
      </trkpt>
      <trkpt lat="45.82617" lon="4.82732">
        <ele>358</ele>
        <time>2020-05-22T12:40:46+02:00</time>
      </trkpt>
      <trkpt lat="45.82638" lon="4.82744">
        <ele>359</ele>
        <time>2020-05-22T12:41:15+02:00</time>
      </trkpt>
      <trkpt lat="45.82655" lon="4.82768">
        <ele>358</ele>
        <time>2020-05-22T12:42:09+02:00</time>
      </trkpt>
      <trkpt lat="45.82671" lon="4.82792">
        <ele>358</ele>
        <time>2020-05-22T12:46:11+02:00</time>
      </trkpt>
      <trkpt lat="45.82673" lon="4.8278">
        <ele>360</ele>
        <time>2020-05-22T13:15:12+02:00</time>
      </trkpt>
      <trkpt lat="45.82682" lon="4.8281">
        <ele>358</ele>
        <time>2020-05-22T13:17:36+02:00</time>
      </trkpt>
      <trkpt lat="45.82693" lon="4.82839">
        <ele>355</ele>
        <time>2020-05-22T13:18:07+02:00</time>
      </trkpt>
      <trkpt lat="45.82711" lon="4.82858">
        <ele>355</ele>
        <time>2020-05-22T13:18:29+02:00</time>
      </trkpt>
      <trkpt lat="45.82732" lon="4.82872">
        <ele>356</ele>
        <time>2020-05-22T13:18:45+02:00</time>
      </trkpt>
      <trkpt lat="45.82756" lon="4.82874">
        <ele>358</ele>
        <time>2020-05-22T13:19:06+02:00</time>
      </trkpt>
      <trkpt lat="45.82779" lon="4.82879">
        <ele>358</ele>
        <time>2020-05-22T13:19:24+02:00</time>
      </trkpt>
      <trkpt lat="45.82802" lon="4.82885">
        <ele>357</ele>
        <time>2020-05-22T13:19:51+02:00</time>
      </trkpt>
      <trkpt lat="45.82825" lon="4.82882">
        <ele>359</ele>
        <time>2020-05-22T13:20:10+02:00</time>
      </trkpt>
      <trkpt lat="45.82848" lon="4.82876">
        <ele>359</ele>
        <time>2020-05-22T13:20:31+02:00</time>
      </trkpt>
      <trkpt lat="45.8287" lon="4.82877">
        <ele>355</ele>
        <time>2020-05-22T13:20:48+02:00</time>
      </trkpt>
      <trkpt lat="45.82893" lon="4.8287">
        <ele>353</ele>
        <time>2020-05-22T13:21:15+02:00</time>
      </trkpt>
      <trkpt lat="45.82913" lon="4.82855">
        <ele>355</ele>
        <time>2020-05-22T13:21:34+02:00</time>
      </trkpt>
      <trkpt lat="45.82935" lon="4.82842">
        <ele>353</ele>
        <time>2020-05-22T13:22:03+02:00</time>
      </trkpt>
      <trkpt lat="45.82954" lon="4.82823">
        <ele>353</ele>
        <time>2020-05-22T13:22:25+02:00</time>
      </trkpt>
      <trkpt lat="45.82972" lon="4.82803">
        <ele>354</ele>
        <time>2020-05-22T13:22:54+02:00</time>
      </trkpt>
      <trkpt lat="45.82993" lon="4.82816">
        <ele>344</ele>
        <time>2020-05-22T13:24:12+02:00</time>
      </trkpt>
      <trkpt lat="45.83014" lon="4.8283">
        <ele>335</ele>
        <time>2020-05-22T13:24:52+02:00</time>
      </trkpt>
      <trkpt lat="45.83035" lon="4.82842">
        <ele>327</ele>
        <time>2020-05-22T13:25:40+02:00</time>
      </trkpt>
      <trkpt lat="45.83056" lon="4.82855">
        <ele>319</ele>
        <time>2020-05-22T13:26:09+02:00</time>
      </trkpt>
      <trkpt lat="45.83078" lon="4.8284">
        <ele>315</ele>
        <time>2020-05-22T13:26:37+02:00</time>
      </trkpt>
      <trkpt lat="45.8309" lon="4.82811">
        <ele>317</ele>
        <time>2020-05-22T13:27:05+02:00</time>
      </trkpt>
      <trkpt lat="45.83101" lon="4.82781">
        <ele>319</ele>
        <time>2020-05-22T13:27:34+02:00</time>
      </trkpt>
      <trkpt lat="45.83108" lon="4.82749">
        <ele>323</ele>
        <time>2020-05-22T13:29:04+02:00</time>
      </trkpt>
      <trkpt lat="45.83118" lon="4.8272">
        <ele>325</ele>
        <time>2020-05-22T13:29:35+02:00</time>
      </trkpt>
      <trkpt lat="45.83138" lon="4.82701">
        <ele>322</ele>
        <time>2020-05-22T13:30:36+02:00</time>
      </trkpt>
      <trkpt lat="45.8316" lon="4.827">
        <ele>314</ele>
        <time>2020-05-22T13:31:37+02:00</time>
      </trkpt>
      <trkpt lat="45.83182" lon="4.82713">
        <ele>306</ele>
        <time>2020-05-22T13:32:26+02:00</time>
      </trkpt>
      <trkpt lat="45.83202" lon="4.82731">
        <ele>298</ele>
        <time>2020-05-22T13:33:38+02:00</time>
      </trkpt>
      <trkpt lat="45.83221" lon="4.82713">
        <ele>295</ele>
        <time>2020-05-22T13:34:45+02:00</time>
      </trkpt>
      <trkpt lat="45.83227" lon="4.82682">
        <ele>296</ele>
        <time>2020-05-22T13:35:11+02:00</time>
      </trkpt>
      <trkpt lat="45.83239" lon="4.82653">
        <ele>295</ele>
        <time>2020-05-22T13:35:29+02:00</time>
      </trkpt>
      <trkpt lat="45.83252" lon="4.82627">
        <ele>294</ele>
        <time>2020-05-22T13:35:56+02:00</time>
      </trkpt>
      <trkpt lat="45.83266" lon="4.82599">
        <ele>294</ele>
        <time>2020-05-22T13:36:16+02:00</time>
      </trkpt>
      <trkpt lat="45.83273" lon="4.82568">
        <ele>294</ele>
        <time>2020-05-22T13:36:45+02:00</time>
      </trkpt>
      <trkpt lat="45.83277" lon="4.82535">
        <ele>296</ele>
        <time>2020-05-22T13:37:11+02:00</time>
      </trkpt>
      <trkpt lat="45.83283" lon="4.82504">
        <ele>298</ele>
        <time>2020-05-22T13:37:42+02:00</time>
      </trkpt>
      <trkpt lat="45.83294" lon="4.82475">
        <ele>297</ele>
        <time>2020-05-22T13:38:03+02:00</time>
      </trkpt>
      <trkpt lat="45.83307" lon="4.82448">
        <ele>296</ele>
        <time>2020-05-22T13:38:24+02:00</time>
      </trkpt>
      <trkpt lat="45.83315" lon="4.82417">
        <ele>296</ele>
        <time>2020-05-22T13:38:50+02:00</time>
      </trkpt>
      <trkpt lat="45.83325" lon="4.82387">
        <ele>295</ele>
        <time>2020-05-22T13:39:08+02:00</time>
      </trkpt>
      <trkpt lat="45.83336" lon="4.82359">
        <ele>293</ele>
        <time>2020-05-22T13:39:46+02:00</time>
      </trkpt>
      <trkpt lat="45.83344" lon="4.82329">
        <ele>291</ele>
        <time>2020-05-22T13:40:04+02:00</time>
      </trkpt>
      <trkpt lat="45.83332" lon="4.823">
        <ele>290</ele>
        <time>2020-05-22T13:40:25+02:00</time>
      </trkpt>
      <trkpt lat="45.83317" lon="4.82276">
        <ele>292</ele>
        <time>2020-05-22T13:40:46+02:00</time>
      </trkpt>
      <trkpt lat="45.83299" lon="4.82255">
        <ele>295</ele>
        <time>2020-05-22T13:41:11+02:00</time>
      </trkpt>
      <trkpt lat="45.83282" lon="4.82231">
        <ele>296</ele>
        <time>2020-05-22T13:41:31+02:00</time>
      </trkpt>
      <trkpt lat="45.83268" lon="4.82204">
        <ele>293</ele>
        <time>2020-05-22T13:41:54+02:00</time>
      </trkpt>
      <trkpt lat="45.83254" lon="4.82177">
        <ele>290</ele>
        <time>2020-05-22T13:42:17+02:00</time>
      </trkpt>
      <trkpt lat="45.83241" lon="4.8215">
        <ele>290</ele>
        <time>2020-05-22T13:42:35+02:00</time>
      </trkpt>
      <trkpt lat="45.83225" lon="4.82127">
        <ele>292</ele>
        <time>2020-05-22T13:42:55+02:00</time>
      </trkpt>
      <trkpt lat="45.83212" lon="4.82099">
        <ele>291</ele>
        <time>2020-05-22T13:43:20+02:00</time>
      </trkpt>
      <trkpt lat="45.83204" lon="4.82069">
        <ele>289</ele>
        <time>2020-05-22T13:43:36+02:00</time>
      </trkpt>
      <trkpt lat="45.83192" lon="4.8204">
        <ele>289</ele>
        <time>2020-05-22T13:43:56+02:00</time>
      </trkpt>
      <trkpt lat="45.83205" lon="4.82068">
        <ele>288</ele>
        <time>2020-05-22T13:44:39+02:00</time>
      </trkpt>
      <trkpt lat="45.83221" lon="4.82091">
        <ele>286</ele>
        <time>2020-05-22T13:44:55+02:00</time>
      </trkpt>
      <trkpt lat="45.83243" lon="4.82102">
        <ele>279</ele>
        <time>2020-05-22T13:45:16+02:00</time>
      </trkpt>
      <trkpt lat="45.83261" lon="4.82122">
        <ele>276</ele>
        <time>2020-05-22T13:45:41+02:00</time>
      </trkpt>
      <trkpt lat="45.8328" lon="4.82142">
        <ele>274</ele>
        <time>2020-05-22T13:46:00+02:00</time>
      </trkpt>
      <trkpt lat="45.83301" lon="4.82157">
        <ele>269</ele>
        <time>2020-05-22T13:46:38+02:00</time>
      </trkpt>
      <trkpt lat="45.83323" lon="4.82168">
        <ele>264</ele>
        <time>2020-05-22T13:47:12+02:00</time>
      </trkpt>
      <trkpt lat="45.83337" lon="4.82192">
        <ele>266</ele>
        <time>2020-05-22T13:48:10+02:00</time>
      </trkpt>
      <trkpt lat="45.83353" lon="4.82216">
        <ele>267</ele>
        <time>2020-05-22T13:48:24+02:00</time>
      </trkpt>
      <trkpt lat="45.8337" lon="4.82237">
        <ele>266</ele>
        <time>2020-05-22T13:49:35+02:00</time>
      </trkpt>
      <trkpt lat="45.83386" lon="4.82263">
        <ele>265</ele>
        <time>2020-05-22T13:50:01+02:00</time>
      </trkpt>
      <trkpt lat="45.83405" lon="4.82282">
        <ele>262</ele>
        <time>2020-05-22T13:50:25+02:00</time>
      </trkpt>
      <trkpt lat="45.83426" lon="4.82294">
        <ele>257</ele>
        <time>2020-05-22T13:50:45+02:00</time>
      </trkpt>
      <trkpt lat="45.83445" lon="4.82311">
        <ele>255</ele>
        <time>2020-05-22T13:51:04+02:00</time>
      </trkpt>
      <trkpt lat="45.83453" lon="4.82342">
        <ele>256</ele>
        <time>2020-05-22T13:51:18+02:00</time>
      </trkpt>
      <trkpt lat="45.8347" lon="4.82362">
        <ele>251</ele>
        <time>2020-05-22T13:51:38+02:00</time>
      </trkpt>
      <trkpt lat="45.83493" lon="4.82364">
        <ele>244</ele>
        <time>2020-05-22T13:52:52+02:00</time>
      </trkpt>
      <trkpt lat="45.83516" lon="4.82367">
        <ele>239</ele>
        <time>2020-05-22T13:53:11+02:00</time>
      </trkpt>
      <trkpt lat="45.83536" lon="4.82381">
        <ele>234</ele>
        <time>2020-05-22T13:53:33+02:00</time>
      </trkpt>
      <trkpt lat="45.83534" lon="4.82414">
        <ele>235</ele>
        <time>2020-05-22T13:55:04+02:00</time>
      </trkpt>
      <trkpt lat="45.83538" lon="4.82445">
        <ele>234</ele>
        <time>2020-05-22T13:55:22+02:00</time>
      </trkpt>
      <trkpt lat="45.83544" lon="4.82477">
        <ele>232</ele>
        <time>2020-05-22T13:55:37+02:00</time>
      </trkpt>
      <trkpt lat="45.83555" lon="4.82506">
        <ele>229</ele>
        <time>2020-05-22T13:55:58+02:00</time>
      </trkpt>
      <trkpt lat="45.83577" lon="4.82516">
        <ele>225</ele>
        <time>2020-05-22T13:56:23+02:00</time>
      </trkpt>
      <trkpt lat="45.83598" lon="4.82504">
        <ele>221</ele>
        <time>2020-05-22T13:56:48+02:00</time>
      </trkpt>
      <trkpt lat="45.8362" lon="4.82496">
        <ele>217</ele>
        <time>2020-05-22T13:57:23+02:00</time>
      </trkpt>
      <trkpt lat="45.83637" lon="4.82475">
        <ele>214</ele>
        <time>2020-05-22T13:57:54+02:00</time>
      </trkpt>
      <trkpt lat="45.83658" lon="4.82458">
        <ele>210</ele>
        <time>2020-05-22T13:58:28+02:00</time>
      </trkpt>
      <trkpt lat="45.83679" lon="4.82449">
        <ele>207</ele>
        <time>2020-05-22T13:58:51+02:00</time>
      </trkpt>
      <trkpt lat="45.83699" lon="4.82432">
        <ele>204</ele>
        <time>2020-05-22T13:59:08+02:00</time>
      </trkpt>
      <trkpt lat="45.83716" lon="4.82409">
        <ele>203</ele>
        <time>2020-05-22T13:59:31+02:00</time>
      </trkpt>
      <trkpt lat="45.83738" lon="4.82398">
        <ele>201</ele>
        <time>2020-05-22T13:59:50+02:00</time>
      </trkpt>
      <trkpt lat="45.83759" lon="4.82391">
        <ele>200</ele>
        <time>2020-05-22T14:01:29+02:00</time>
      </trkpt>
      <trkpt lat="45.83781" lon="4.82378">
        <ele>201</ele>
        <time>2020-05-22T14:01:45+02:00</time>
      </trkpt>
      <trkpt lat="45.83803" lon="4.82371">
        <ele>201</ele>
        <time>2020-05-22T14:02:23+02:00</time>
      </trkpt>
      <trkpt lat="45.83826" lon="4.82363">
        <ele>202</ele>
        <time>2020-05-22T14:03:05+02:00</time>
      </trkpt>
      <trkpt lat="45.83846" lon="4.82347">
        <ele>205</ele>
        <time>2020-05-22T14:03:28+02:00</time>
      </trkpt>
      <trkpt lat="45.83855" lon="4.82316">
        <ele>208</ele>
        <time>2020-05-22T14:03:53+02:00</time>
      </trkpt>
      <trkpt lat="45.8386" lon="4.82283">
        <ele>211</ele>
        <time>2020-05-22T14:04:12+02:00</time>
      </trkpt>
      <trkpt lat="45.8386" lon="4.82249">
        <ele>213</ele>
        <time>2020-05-22T14:04:42+02:00</time>
      </trkpt>
      <trkpt lat="45.83859" lon="4.82215">
        <ele>215</ele>
        <time>2020-05-22T14:05:07+02:00</time>
      </trkpt>
      <trkpt lat="45.83859" lon="4.82182">
        <ele>217</ele>
        <time>2020-05-22T14:05:30+02:00</time>
      </trkpt>
      <trkpt lat="45.83864" lon="4.82149">
        <ele>219</ele>
        <time>2020-05-22T14:05:49+02:00</time>
      </trkpt>
      <trkpt lat="45.83866" lon="4.82116">
        <ele>221</ele>
        <time>2020-05-22T14:06:11+02:00</time>
      </trkpt>
    </trkseg>
  </trk>
</gpx>